< < Back
Terminal Aerodrome Forecast


Current Version              Previous Versions:   1  2  3  4  5  6  7  8  9  

Terminal Aerodrome Forecast

672
FTUS42 KMLB 261749
TAFDAB
TAF
KDAB 261749Z 2618/2718 29008KT P6SM SCT025 BKN080
     FM270000 34007KT P6SM BKN025 OVC040=



Latest METAR

189
SAUS80 KWBC 270000 RRB
MTRDAB
METAR KDAB 262353Z 02010KT 10SM SCT028 BKN038 BKN075 OVC250 13/09 A2999
RMK AO2 SLP155 T01330089 10211 20133 53026


USA.gov is the U.S. government's official web portal to all federal, state and local government web resources and services.